createdAt,value
2023-03-11T00:00:40.766Z,1001.99
2023-03-11T00:01:40.705Z,1002.00
2023-03-11T00:02:40.635Z,1002.02
2023-03-11T00:03:40.600Z,1002.07
2023-03-11T00:05:40.650Z,1002.08
2023-03-11T00:06:40.440Z,1002.07
2023-03-11T18:56:00.547Z,1008.62
2023-03-11T18:57:01.466Z,1008.68
2023-03-11T18:58:00.402Z,1008.66
2023-03-11T18:59:00.351Z,1008.72
2023-03-11T19:00:00.319Z,1008.71
2023-03-11T19:01:00.279Z,1008.72
2023-03-11T19:02:00.181Z,1008.71
2023-03-11T19:03:00.135Z,1008.71
2023-03-11T19:04:00.106Z,1008.68
2023-03-11T19:05:00.074Z,1008.69
2023-03-11T19:05:59.968Z,1008.69
2023-03-11T19:07:59.864Z,1008.67
2023-03-11T19:08:59.825Z,1008.67
2023-03-11T19:09:59.771Z,1008.67
2023-03-11T19:10:59.712Z,1008.65
2023-03-11T19:11:59.673Z,1008.63
2023-03-11T19:12:59.615Z,1008.63
2023-03-11T19:13:59.573Z,1008.61
2023-03-11T19:14:59.509Z,1008.60
2023-03-11T19:15:59.451Z,1008.57
2023-03-11T19:16:59.425Z,1008.56
2023-03-11T19:18:06.703Z,1008.58
2023-03-11T19:18:59.298Z,1008.60
2023-03-11T19:19:59.272Z,1008.67
2023-03-11T19:20:59.225Z,1008.66
2023-03-11T19:21:59.147Z,1008.70
2023-03-11T19:22:59.098Z,1008.73
2023-03-11T19:23:59.059Z,1008.75
2023-03-11T19:24:58.991Z,1008.79
2023-03-11T19:26:03.076Z,1008.79
2023-03-11T19:26:58.894Z,1008.75
2023-03-11T19:27:58.857Z,1008.77
2023-03-11T19:28:58.790Z,1008.78
2023-03-11T19:29:58.747Z,1008.80
2023-03-11T19:30:58.925Z,1008.77
2023-03-11T19:31:58.634Z,1008.82
2023-03-11T19:32:58.659Z,1008.84
2023-03-11T19:33:58.535Z,1008.81
2023-03-11T19:34:58.485Z,1008.80
2023-03-11T19:35:58.476Z,1008.79
2023-03-11T19:36:58.381Z,1008.77
2023-03-11T19:37:58.335Z,1008.81
2023-03-11T19:38:58.313Z,1008.80
2023-03-11T19:39:58.230Z,1008.80
2023-03-11T19:40:58.179Z,1008.78
2023-03-11T19:41:58.126Z,1008.77
2023-03-11T19:42:58.085Z,1008.78
2023-03-11T19:43:58.048Z,1008.78
2023-03-11T19:44:57.975Z,1008.75
2023-03-11T19:45:57.977Z,1008.79
2023-03-11T19:46:57.899Z,1008.78
2023-03-11T19:47:57.823Z,1008.78
2023-03-11T19:48:57.772Z,1008.80
2023-03-11T19:49:57.731Z,1008.81
2023-03-11T19:50:57.686Z,1008.80
2023-03-11T19:51:57.667Z,1008.81
2023-03-11T19:52:57.610Z,1008.81
2023-03-11T19:53:57.545Z,1008.79
2023-03-11T19:54:57.483Z,1008.76
2023-03-11T19:55:57.441Z,1008.73
2023-03-11T19:56:57.365Z,1008.76
2023-03-11T19:57:57.316Z,1008.73
2023-03-11T19:58:57.267Z,1008.72
2023-03-11T19:59:57.296Z,1008.81
2023-03-11T20:00:57.179Z,1008.81
2023-03-11T20:01:57.112Z,1008.87
2023-03-11T20:02:57.188Z,1008.86
2023-03-11T20:03:57.010Z,1008.91
2023-03-11T20:04:57.056Z,1008.87
2023-03-11T20:05:57.009Z,1008.86
2023-03-11T20:06:56.879Z,1008.87
2023-03-11T20:09:22.620Z,1008.94
2023-03-11T20:10:22.558Z,1008.92
2023-03-11T20:11:22.523Z,1008.92
2023-03-11T20:12:22.447Z,1008.93
2023-03-11T20:13:22.426Z,1008.94
2023-03-11T20:14:22.405Z,1008.90
2023-03-11T20:15:22.352Z,1008.96
2023-03-11T20:16:22.286Z,1009.00
2023-03-11T20:17:22.189Z,1008.96
2023-03-11T20:18:22.154Z,1008.89
2023-03-11T20:19:22.087Z,1008.81
2023-03-11T20:20:22.091Z,1008.79
2023-03-11T20:21:22.064Z,1008.84
2023-03-11T20:22:21.986Z,1008.82
2023-03-11T20:23:21.973Z,1008.80
2023-03-11T20:24:21.904Z,1008.77
2023-03-11T20:25:21.784Z,1008.84
2023-03-11T20:26:21.781Z,1008.81
2023-03-11T20:27:21.785Z,1008.85
2023-03-11T20:28:21.636Z,1008.84
2023-03-11T20:29:21.592Z,1008.82
2023-03-11T20:30:21.606Z,1008.86
2023-03-11T20:31:21.618Z,1008.86
2023-03-11T20:32:21.532Z,1008.88
2023-03-11T20:33:21.441Z,1008.86
2023-03-11T20:34:21.381Z,1008.87
2023-03-11T20:35:21.385Z,1008.86
2023-03-11T20:36:21.363Z,1008.85
2023-03-11T20:37:21.175Z,1008.87
2023-03-11T20:38:21.124Z,1008.88
2023-03-11T20:39:21.121Z,1008.89
2023-03-11T20:40:21.023Z,1008.92
2023-03-11T20:41:21.031Z,1008.92
2023-03-11T20:42:20.998Z,1008.91
2023-03-11T20:43:20.876Z,1008.89
2023-03-11T20:44:20.823Z,1008.90
2023-03-11T20:45:20.786Z,1008.92
2023-03-11T20:46:20.888Z,1008.95
2023-03-11T20:47:20.859Z,1008.94
2023-03-11T20:48:20.655Z,1008.92
2023-03-11T20:49:20.628Z,1008.89
2023-03-11T20:50:20.556Z,1008.89
2023-03-11T20:51:20.911Z,1008.86
2023-03-11T20:52:20.517Z,1008.86
2023-03-11T20:53:20.364Z,1008.88
2023-03-11T20:54:20.328Z,1008.87
2023-03-11T20:55:20.308Z,1008.85
2023-03-11T20:56:20.227Z,1008.83
2023-03-11T20:57:20.167Z,1008.85
2023-03-11T20:58:20.184Z,1008.85
2023-03-11T20:59:20.077Z,1008.81
2023-03-11T21:00:20.044Z,1008.84
2023-03-11T21:01:20.073Z,1008.80
2023-03-11T21:02:19.932Z,1008.85
2023-03-11T21:03:20.015Z,1008.84
2023-03-11T21:04:19.823Z,1008.87
2023-03-11T21:05:19.765Z,1008.85
2023-03-11T21:06:19.760Z,1008.84
2023-03-11T21:07:19.753Z,1008.83
2023-03-11T21:08:19.627Z,1008.87
2023-03-11T21:09:19.557Z,1008.86
2023-03-11T21:10:19.615Z,1008.85
2023-03-11T21:11:19.485Z,1008.84
2023-03-11T21:12:19.455Z,1008.85
2023-03-11T21:13:19.480Z,1008.83
2023-03-11T21:14:19.463Z,1008.86
2023-03-11T21:15:19.264Z,1008.92
2023-03-11T21:16:19.441Z,1008.90
2023-03-11T21:17:19.347Z,1008.86
2023-03-11T21:18:19.115Z,1008.87
2023-03-11T21:19:19.210Z,1008.87
2023-03-11T21:20:18.996Z,1008.85
2023-03-11T21:21:19.031Z,1008.84
2023-03-11T21:22:19.091Z,1008.86
2023-03-11T21:23:18.852Z,1008.86
2023-03-11T21:24:18.796Z,1008.86
2023-03-11T21:25:18.840Z,1008.83
2023-03-11T21:26:18.757Z,1008.80
2023-03-11T21:27:18.679Z,1008.81
2023-03-11T21:28:18.599Z,1008.83
